Flight Track Log - Related Links

Times and Time Zones

All times are in EDT time to prevent confusion due to time zone crossing. See the N5232U flight status page for this flight to view local times or setup timezone preferences in your user account.


Time Position Orientation Groundspeed Altitude Reporting Facility
EDT Latitude Longitude Course Direction KTS MPH feet Rate Location/Type
Mon 03:47:05 PM 40.4917 -86.1242 93° East 115 132 3,500  Level Chicago Center
Mon 03:47:53 PM 40.4906 -86.0914 93° East 114 131 3,400 -55 Descending Chicago Center
Mon 03:48:54 PM 40.4858 -86.0500 99° East 116 133 3,400 -49 Level Chicago Center
Mon 03:49:55 PM 40.4786 -86.0086 103° East 114 131 3,300 -99 Descending Chicago Center
Mon 03:50:55 PM 40.4717 -85.9644 102° East 115 132 3,200  Descending Chicago Center
Mon 03:51:56 PM 40.4667 -85.9233 99° East 116 133 3,300 149 Climbing Chicago Center
Mon 03:52:56 PM 40.4572 -85.8872 109° East 104 120 3,500 149 Climbing Chicago Center
Mon 03:53:57 PM 40.4522 -85.8461 99° East 113 130 3,600 98 Climbing Chicago Center
Mon 03:54:58 PM 40.4453 -85.8019 102° East 122 140 3,700 -63 Climbing Chicago Center
Mon 03:57:09 PM 40.4333 -85.7000 99° East 126 145 3,400 -61 Descending Indianapolis TRACON
Mon 03:58:15 PM 40.4333 -85.6500 90° East 125 144 3,500 94 Climbing Indianapolis TRACON
Mon 03:59:16 PM 40.4167 -85.6167 123° Southeast 120 138 3,600 99 Climbing Indianapolis TRACON
Mon 04:00:16 PM 40.4167 -85.5667 90° East 124 143 3,700 -53 Climbing Indianapolis TRACON
Mon 04:01:10 PM 40.4000 -85.5167 114° Southeast 127 146 3,500 -158 Descending Indianapolis TRACON
Mon 04:02:10 PM 40.4000 -85.4833 90° East 127 146 3,400 -105 Descending Indianapolis TRACON
Mon 04:03:04 PM 40.3833 -85.4333 114° Southeast 127 146 3,300 -59 Descending Indianapolis TRACON
Mon 04:03:52 PM 40.3833 -85.4000 90° East 127 146 3,300 80 Level Indianapolis TRACON
Mon 04:05:00 PM 40.4046 -85.4635 294° West  Level FlightAware Approximate
Mon 04:08:03 PM 40.3600 -85.2272 104° East 121 139 3,700  Level Indianapolis Center
Mon 04:08:34 PM 40.3553 -85.2072 107° East 119 137 3,700  Level Indianapolis Center
Mon 04:12:00 PM 40.3984 -85.3287 104° East  Level FlightAware Approximate
Mon 04:13:00 PM 40.3870 -85.2693 104° East  Level FlightAware Approximate

Login

Don't have an account? Register now (free) for customized features, flight alerts, and more!